This is the latest recevied weather packets stored in our database for station/object N1TKS. If no packets are shown the sender has not sent any weather packets the latest 10 day(s).
| Time | Temp. | Humidity | Pressure | Rain* | Wind** | Luminosity | Snow |
|---|---|---|---|---|---|---|---|
| 1777906013 | 17.78° C | 40% | 1013.2 hPa | 0 mm | - | - | - |
| 1777905746 | 17.78° C | 40% | 1013.3 hPa | 0 mm | - | - | - |
| 1777905713 | 17.78° C | 40% | 1013.3 hPa | 0 mm | - | - | - |
| 1777905114 | 17.22° C | 42% | 1013.4 hPa | 0 mm | - | - | - |
| 1777904575 | 17.22° C | 43% | 1013.4 hPa | 0 mm | - | - | - |
| 1777904516 | 17.22° C | 43% | 1013.4 hPa | 0 mm | - | - | - |
| 1777904214 | 17.22° C | 43% | 1013.3 hPa | 0 mm | - | - | - |
| 1777903913 | 16.67° C | 44% | 1013.5 hPa | 0 mm | - | - | - |
| 1777903759 | 16.11° C | 48% | 1013.7 hPa | 0 mm | - | - | - |
| 1777903672 | 16.67° C | 42% | 1013.5 hPa | 0 mm | - | - | - |
| 1777903614 | 16.67° C | 42% | 1013.5 hPa | 0 mm | - | - | - |
| 1777903126 | 16.67° C | 45% | 1013.5 hPa | 0 mm | - | - | - |
| 1777903017 | 16.67° C | 45% | 1013.5 hPa | 0 mm | - | - | - |
| 1777902258 | 16.11° C | 48% | 1013.7 hPa | 0 mm | - | - | - |
| 1777902114 | 16.11° C | 48% | 1013.7 hPa | 0 mm | - | - | - |
| 1777901847 | 15.56° C | 48% | 1013.9 hPa | 0 mm | - | - | - |
| 1777901813 | 16.11° C | 47% | 1013.7 hPa | 0 mm | - | - | - |
| 1777901516 | 16.11° C | 47% | 1013.7 hPa | 0 mm | - | - | - |
| 1777901213 | 16.11° C | 48% | 1013.8 hPa | 0 mm | - | - | - |
| 1777900914 | 15.56° C | 49% | 1013.8 hPa | 0 mm | - | - | - |
| 1777900614 | 15.56° C | 48% | 1013.9 hPa | 0 mm | - | - | - |
| 1777900377 | 15.56° C | 49% | 1013.9 hPa | 0 mm | - | - | - |
| 1777900314 | 15.56° C | 49% | 1013.9 hPa | 0 mm | - | - | - |
| 1777899915 | 13.89° C | 50% | 1014.2 hPa | 0 mm | - | - | - |
| 1777899714 | 15° C | 51% | 1014 hPa | 0 mm | - | - | - |
* Rain latest hour (hover to see other rain measurements)
** Current wind speed in m/s (hover to see current wind gust speed)